sensor_id;sensor_type;location;lat;lon;timestamp;P1;durP1;ratioP1;P2;durP2;ratioP2
13693;SDS011;6919;52.344;14.518;2024-02-14T00:01:12;9.23;;;5.70;;
13693;SDS011;6919;52.344;14.518;2024-02-14T00:03:40;10.07;;;4.97;;
13693;SDS011;6919;52.344;14.518;2024-02-14T00:06:08;8.20;;;4.87;;
13693;SDS011;6919;52.344;14.518;2024-02-14T00:08:38;13.47;;;6.17;;
13693;SDS011;6919;52.344;14.518;2024-02-14T00:11:06;7.17;;;5.60;;
13693;SDS011;6919;52.344;14.518;2024-02-14T00:13:35;10.53;;;5.07;;
13693;SDS011;6919;52.344;14.518;2024-02-14T00:16:05;11.43;;;5.50;;
13693;SDS011;6919;52.344;14.518;2024-02-14T00:18:34;9.40;;;4.93;;
13693;SDS011;6919;52.344;14.518;2024-02-14T00:21:03;11.80;;;5.87;;
13693;SDS011;6919;52.344;14.518;2024-02-14T00:23:31;8.43;;;5.77;;
13693;SDS011;6919;52.344;14.518;2024-02-14T00:26:00;7.97;;;6.13;;
13693;SDS011;6919;52.344;14.518;2024-02-14T00:28:28;12.53;;;5.60;;
13693;SDS011;6919;52.344;14.518;2024-02-14T00:30:56;9.63;;;5.53;;
13693;SDS011;6919;52.344;14.518;2024-02-14T00:33:26;7.47;;;5.63;;
13693;SDS011;6919;52.344;14.518;2024-02-14T00:35:55;7.17;;;5.77;;
13693;SDS011;6919;52.344;14.518;2024-02-14T00:38:23;6.30;;;5.10;;
13693;SDS011;6919;52.344;14.518;2024-02-14T00:40:51;6.87;;;5.33;;
13693;SDS011;6919;52.344;14.518;2024-02-14T00:43:20;10.10;;;5.63;;
13693;SDS011;6919;52.344;14.518;2024-02-14T00:45:48;11.80;;;6.73;;
13693;SDS011;6919;52.344;14.518;2024-02-14T00:48:16;11.53;;;6.40;;
13693;SDS011;6919;52.344;14.518;2024-02-14T00:50:46;10.83;;;5.87;;
13693;SDS011;6919;52.344;14.518;2024-02-14T00:53:14;12.17;;;6.40;;
13693;SDS011;6919;52.344;14.518;2024-02-14T00:55:43;8.17;;;5.57;;
13693;SDS011;6919;52.344;14.518;2024-02-14T00:58:11;9.63;;;5.40;;
13693;SDS011;6919;52.344;14.518;2024-02-14T01:00:39;8.43;;;5.53;;
13693;SDS011;6919;52.344;14.518;2024-02-14T01:03:07;12.47;;;5.90;;
13693;SDS011;6919;52.344;14.518;2024-02-14T01:05:39;7.33;;;5.60;;
13693;SDS011;6919;52.344;14.518;2024-02-14T01:08:09;10.50;;;5.80;;
13693;SDS011;6919;52.344;14.518;2024-02-14T01:10:37;10.83;;;5.83;;
13693;SDS011;6919;52.344;14.518;2024-02-14T01:13:05;11.70;;;6.00;;
13693;SDS011;6919;52.344;14.518;2024-02-14T01:15:34;8.33;;;6.03;;
13693;SDS011;6919;52.344;14.518;2024-02-14T01:18:02;8.17;;;5.53;;
13693;SDS011;6919;52.344;14.518;2024-02-14T01:20:31;10.67;;;5.93;;
13693;SDS011;6919;52.344;14.518;2024-02-14T01:22:59;13.83;;;6.07;;
13693;SDS011;6919;52.344;14.518;2024-02-14T01:25:29;12.30;;;5.70;;
13693;SDS011;6919;52.344;14.518;2024-02-14T01:27:57;16.93;;;5.80;;
13693;SDS011;6919;52.344;14.518;2024-02-14T01:30:26;9.33;;;6.30;;
13693;SDS011;6919;52.344;14.518;2024-02-14T01:32:54;9.07;;;5.80;;
13693;SDS011;6919;52.344;14.518;2024-02-14T01:35:22;9.93;;;5.30;;
13693;SDS011;6919;52.344;14.518;2024-02-14T01:37:52;10.43;;;6.07;;
13693;SDS011;6919;52.344;14.518;2024-02-14T01:40:21;12.53;;;6.10;;
13693;SDS011;6919;52.344;14.518;2024-02-14T01:42:50;8.23;;;5.70;;
13693;SDS011;6919;52.344;14.518;2024-02-14T01:45:19;14.00;;;6.27;;
13693;SDS011;6919;52.344;14.518;2024-02-14T01:47:47;7.10;;;5.50;;
13693;SDS011;6919;52.344;14.518;2024-02-14T01:50:16;12.93;;;5.70;;
13693;SDS011;6919;52.344;14.518;2024-02-14T01:52:51;10.13;;;5.83;;
13693;SDS011;6919;52.344;14.518;2024-02-14T01:55:20;8.80;;;5.80;;
13693;SDS011;6919;52.344;14.518;2024-02-14T01:57:50;9.83;;;5.93;;
13693;SDS011;6919;52.344;14.518;2024-02-14T02:00:19;11.70;;;5.47;;
13693;SDS011;6919;52.344;14.518;2024-02-14T02:02:48;7.53;;;5.67;;
13693;SDS011;6919;52.344;14.518;2024-02-14T02:05:16;9.93;;;5.60;;
13693;SDS011;6919;52.344;14.518;2024-02-14T02:07:45;9.77;;;5.07;;
13693;SDS011;6919;52.344;14.518;2024-02-14T02:10:14;12.47;;;5.80;;
13693;SDS011;6919;52.344;14.518;2024-02-14T02:12:43;10.07;;;5.57;;
13693;SDS011;6919;52.344;14.518;2024-02-14T02:15:13;5.63;;;4.87;;
13693;SDS011;6919;52.344;14.518;2024-02-14T02:17:42;10.90;;;5.63;;
13693;SDS011;6919;52.344;14.518;2024-02-14T02:20:12;9.20;;;5.40;;
13693;SDS011;6919;52.344;14.518;2024-02-14T02:22:44;9.67;;;5.73;;
13693;SDS011;6919;52.344;14.518;2024-02-14T02:25:14;7.50;;;4.77;;
13693;SDS011;6919;52.344;14.518;2024-02-14T02:27:44;9.17;;;4.73;;
13693;SDS011;6919;52.344;14.518;2024-02-14T02:30:12;8.60;;;5.07;;
13693;SDS011;6919;52.344;14.518;2024-02-14T02:32:41;10.10;;;4.90;;
13693;SDS011;6919;52.344;14.518;2024-02-14T02:35:10;11.17;;;6.30;;
13693;SDS011;6919;52.344;14.518;2024-02-14T02:37:39;9.83;;;5.30;;
13693;SDS011;6919;52.344;14.518;2024-02-14T02:40:09;6.93;;;5.43;;
13693;SDS011;6919;52.344;14.518;2024-02-14T02:42:40;6.40;;;4.97;;
13693;SDS011;6919;52.344;14.518;2024-02-14T02:45:09;7.20;;;5.50;;
13693;SDS011;6919;52.344;14.518;2024-02-14T02:47:38;8.00;;;4.97;;
13693;SDS011;6919;52.344;14.518;2024-02-14T02:50:06;6.27;;;5.03;;
13693;SDS011;6919;52.344;14.518;2024-02-14T02:52:35;7.93;;;5.33;;
13693;SDS011;6919;52.344;14.518;2024-02-14T02:55:05;11.97;;;5.57;;
13693;SDS011;6919;52.344;14.518;2024-02-14T02:57:35;10.03;;;5.40;;
13693;SDS011;6919;52.344;14.518;2024-02-14T03:00:06;7.20;;;5.03;;
13693;SDS011;6919;52.344;14.518;2024-02-14T03:02:35;6.17;;;5.10;;
13693;SDS011;6919;52.344;14.518;2024-02-14T03:05:07;7.87;;;4.83;;
13693;SDS011;6919;52.344;14.518;2024-02-14T03:07:37;7.27;;;4.63;;
13693;SDS011;6919;52.344;14.518;2024-02-14T03:10:05;13.93;;;5.77;;
13693;SDS011;6919;52.344;14.518;2024-02-14T03:12:36;7.37;;;4.90;;
13693;SDS011;6919;52.344;14.518;2024-02-14T03:15:05;6.10;;;4.53;;
13693;SDS011;6919;52.344;14.518;2024-02-14T03:17:36;8.83;;;4.67;;
13693;SDS011;6919;52.344;14.518;2024-02-14T03:20:05;7.90;;;5.40;;
13693;SDS011;6919;52.344;14.518;2024-02-14T03:22:43;8.77;;;4.70;;
13693;SDS011;6919;52.344;14.518;2024-02-14T03:25:13;9.07;;;5.07;;
13693;SDS011;6919;52.344;14.518;2024-02-14T03:27:46;14.03;;;5.93;;
13693;SDS011;6919;52.344;14.518;2024-02-14T03:30:18;7.70;;;5.83;;
13693;SDS011;6919;52.344;14.518;2024-02-14T03:32:46;8.10;;;5.80;;
13693;SDS011;6919;52.344;14.518;2024-02-14T03:35:15;9.37;;;5.97;;
13693;SDS011;6919;52.344;14.518;2024-02-14T03:37:45;10.80;;;6.13;;
13693;SDS011;6919;52.344;14.518;2024-02-14T03:40:18;10.30;;;6.20;;
13693;SDS011;6919;52.344;14.518;2024-02-14T03:42:49;11.23;;;6.30;;
13693;SDS011;6919;52.344;14.518;2024-02-14T03:45:18;11.27;;;6.40;;
13693;SDS011;6919;52.344;14.518;2024-02-14T03:47:47;11.57;;;6.80;;
13693;SDS011;6919;52.344;14.518;2024-02-14T03:50:15;11.27;;;6.60;;
13693;SDS011;6919;52.344;14.518;2024-02-14T03:52:43;9.23;;;6.57;;
13693;SDS011;6919;52.344;14.518;2024-02-14T03:55:12;9.60;;;7.10;;
13693;SDS011;6919;52.344;14.518;2024-02-14T03:57:43;10.00;;;6.50;;
13693;SDS011;6919;52.344;14.518;2024-02-14T04:00:15;14.23;;;6.57;;
13693;SDS011;6919;52.344;14.518;2024-02-14T04:02:44;9.43;;;6.63;;
13693;SDS011;6919;52.344;14.518;2024-02-14T04:05:15;10.80;;;6.53;;
13693;SDS011;6919;52.344;14.518;2024-02-14T04:07:43;10.40;;;7.47;;
13693;SDS011;6919;52.344;14.518;2024-02-14T04:10:15;9.67;;;7.03;;
13693;SDS011;6919;52.344;14.518;2024-02-14T04:12:43;10.10;;;6.93;;
13693;SDS011;6919;52.344;14.518;2024-02-14T04:15:12;9.13;;;6.67;;
13693;SDS011;6919;52.344;14.518;2024-02-14T04:17:42;12.63;;;7.03;;
13693;SDS011;6919;52.344;14.518;2024-02-14T04:20:10;11.73;;;6.53;;
13693;SDS011;6919;52.344;14.518;2024-02-14T04:22:39;12.60;;;6.80;;
13693;SDS011;6919;52.344;14.518;2024-02-14T04:25:09;14.23;;;7.33;;
13693;SDS011;6919;52.344;14.518;2024-02-14T04:27:38;14.40;;;7.73;;
13693;SDS011;6919;52.344;14.518;2024-02-14T04:30:06;13.60;;;7.93;;
13693;SDS011;6919;52.344;14.518;2024-02-14T04:32:35;12.43;;;7.90;;
13693;SDS011;6919;52.344;14.518;2024-02-14T04:35:05;12.87;;;8.43;;
13693;SDS011;6919;52.344;14.518;2024-02-14T04:37:35;16.73;;;8.17;;
13693;SDS011;6919;52.344;14.518;2024-02-14T04:40:03;18.10;;;7.07;;
13693;SDS011;6919;52.344;14.518;2024-02-14T04:42:33;17.23;;;7.77;;
13693;SDS011;6919;52.344;14.518;2024-02-14T04:45:02;13.27;;;8.13;;
13693;SDS011;6919;52.344;14.518;2024-02-14T04:47:31;11.40;;;8.00;;
13693;SDS011;6919;52.344;14.518;2024-02-14T04:50:00;16.03;;;8.20;;
13693;SDS011;6919;52.344;14.518;2024-02-14T04:52:31;11.70;;;7.60;;
13693;SDS011;6919;52.344;14.518;2024-02-14T04:55:00;11.77;;;7.73;;
13693;SDS011;6919;52.344;14.518;2024-02-14T04:57:28;14.60;;;7.93;;
13693;SDS011;6919;52.344;14.518;2024-02-14T04:59:57;15.00;;;8.00;;
13693;SDS011;6919;52.344;14.518;2024-02-14T05:02:25;10.23;;;7.00;;
13693;SDS011;6919;52.344;14.518;2024-02-14T05:04:54;11.23;;;8.17;;
13693;SDS011;6919;52.344;14.518;2024-02-14T05:07:22;13.53;;;7.53;;
13693;SDS011;6919;52.344;14.518;2024-02-14T05:09:52;11.40;;;7.80;;
13693;SDS011;6919;52.344;14.518;2024-02-14T05:12:22;17.37;;;8.60;;
13693;SDS011;6919;52.344;14.518;2024-02-14T05:14:51;13.73;;;7.77;;
13693;SDS011;6919;52.344;14.518;2024-02-14T05:17:19;11.13;;;7.53;;
13693;SDS011;6919;52.344;14.518;2024-02-14T05:19:48;15.03;;;7.97;;
13693;SDS011;6919;52.344;14.518;2024-02-14T05:22:16;14.20;;;7.77;;
13693;SDS011;6919;52.344;14.518;2024-02-14T05:24:45;14.17;;;7.73;;
13693;SDS011;6919;52.344;14.518;2024-02-14T05:27:14;12.57;;;8.07;;
13693;SDS011;6919;52.344;14.518;2024-02-14T05:29:43;11.57;;;8.07;;
13693;SDS011;6919;52.344;14.518;2024-02-14T05:32:11;13.43;;;7.50;;
13693;SDS011;6919;52.344;14.518;2024-02-14T05:34:40;13.33;;;8.37;;
13693;SDS011;6919;52.344;14.518;2024-02-14T05:37:08;20.03;;;12.93;;
13693;SDS011;6919;52.344;14.518;2024-02-14T05:39:36;38.30;;;22.27;;
13693;SDS011;6919;52.344;14.518;2024-02-14T05:42:05;21.47;;;12.70;;
13693;SDS011;6919;52.344;14.518;2024-02-14T05:44:35;18.97;;;11.27;;
13693;SDS011;6919;52.344;14.518;2024-02-14T05:47:03;18.27;;;10.97;;
13693;SDS011;6919;52.344;14.518;2024-02-14T05:49:31;18.00;;;9.57;;
13693;SDS011;6919;52.344;14.518;2024-02-14T05:52:00;24.57;;;11.40;;
13693;SDS011;6919;52.344;14.518;2024-02-14T05:54:28;14.50;;;9.90;;
13693;SDS011;6919;52.344;14.518;2024-02-14T05:56:56;26.43;;;17.37;;
13693;SDS011;6919;52.344;14.518;2024-02-14T05:59:25;54.63;;;31.13;;
13693;SDS011;6919;52.344;14.518;2024-02-14T06:01:55;25.10;;;15.80;;
13693;SDS011;6919;52.344;14.518;2024-02-14T06:04:23;52.50;;;24.57;;
13693;SDS011;6919;52.344;14.518;2024-02-14T06:06:51;67.57;;;31.43;;
13693;SDS011;6919;52.344;14.518;2024-02-14T06:09:19;73.37;;;28.23;;
13693;SDS011;6919;52.344;14.518;2024-02-14T06:11:48;61.43;;;22.90;;
13693;SDS011;6919;52.344;14.518;2024-02-14T06:14:16;37.20;;;16.87;;
13693;SDS011;6919;52.344;14.518;2024-02-14T06:16:45;58.30;;;23.77;;
13693;SDS011;6919;52.344;14.518;2024-02-14T06:19:14;109.63;;;39.40;;
13693;SDS011;6919;52.344;14.518;2024-02-14T06:21:42;52.73;;;21.47;;
13693;SDS011;6919;52.344;14.518;2024-02-14T06:24:11;21.80;;;11.70;;
13693;SDS011;6919;52.344;14.518;2024-02-14T06:26:40;22.30;;;10.40;;
13693;SDS011;6919;52.344;14.518;2024-02-14T06:29:08;33.30;;;13.90;;
13693;SDS011;6919;52.344;14.518;2024-02-14T06:31:36;17.67;;;10.13;;
13693;SDS011;6919;52.344;14.518;2024-02-14T06:34:05;88.03;;;32.60;;
13693;SDS011;6919;52.344;14.518;2024-02-14T06:36:36;23.97;;;12.13;;
13693;SDS011;6919;52.344;14.518;2024-02-14T06:39:06;48.90;;;21.17;;
13693;SDS011;6919;52.344;14.518;2024-02-14T06:41:35;68.07;;;29.00;;
13693;SDS011;6919;52.344;14.518;2024-02-14T06:44:03;41.83;;;18.73;;
13693;SDS011;6919;52.344;14.518;2024-02-14T06:46:32;12.47;;;9.03;;
13693;SDS011;6919;52.344;14.518;2024-02-14T06:49:02;17.80;;;11.20;;
13693;SDS011;6919;52.344;14.518;2024-02-14T06:51:30;18.80;;;10.20;;
13693;SDS011;6919;52.344;14.518;2024-02-14T06:54:00;15.53;;;9.37;;
13693;SDS011;6919;52.344;14.518;2024-02-14T06:56:29;14.20;;;8.10;;
13693;SDS011;6919;52.344;14.518;2024-02-14T06:58:58;83.97;;;29.83;;
13693;SDS011;6919;52.344;14.518;2024-02-14T07:01:27;55.97;;;26.73;;
13693;SDS011;6919;52.344;14.518;2024-02-14T07:03:55;22.77;;;12.53;;
13693;SDS011;6919;52.344;14.518;2024-02-14T07:06:24;26.30;;;13.93;;
13693;SDS011;6919;52.344;14.518;2024-02-14T07:08:52;20.00;;;10.97;;
13693;SDS011;6919;52.344;14.518;2024-02-14T07:11:22;22.37;;;11.13;;
13693;SDS011;6919;52.344;14.518;2024-02-14T07:13:51;12.80;;;7.87;;
13693;SDS011;6919;52.344;14.518;2024-02-14T07:16:19;12.93;;;9.20;;
13693;SDS011;6919;52.344;14.518;2024-02-14T07:18:47;10.53;;;7.87;;
13693;SDS011;6919;52.344;14.518;2024-02-14T07:21:17;9.53;;;7.63;;
13693;SDS011;6919;52.344;14.518;2024-02-14T07:23:45;15.47;;;8.17;;
13693;SDS011;6919;52.344;14.518;2024-02-14T07:26:14;13.63;;;7.67;;
13693;SDS011;6919;52.344;14.518;2024-02-14T07:28:43;14.87;;;7.60;;
13693;SDS011;6919;52.344;14.518;2024-02-14T07:31:11;12.20;;;7.97;;
13693;SDS011;6919;52.344;14.518;2024-02-14T07:33:40;14.93;;;6.83;;
13693;SDS011;6919;52.344;14.518;2024-02-14T07:36:09;11.87;;;7.93;;
13693;SDS011;6919;52.344;14.518;2024-02-14T07:38:38;11.87;;;7.40;;
13693;SDS011;6919;52.344;14.518;2024-02-14T07:41:08;14.67;;;6.60;;
13693;SDS011;6919;52.344;14.518;2024-02-14T07:43:37;10.53;;;6.80;;
13693;SDS011;6919;52.344;14.518;2024-02-14T07:46:06;15.13;;;6.83;;
13693;SDS011;6919;52.344;14.518;2024-02-14T07:48:34;9.63;;;6.57;;
13693;SDS011;6919;52.344;14.518;2024-02-14T07:51:06;11.47;;;6.67;;
13693;SDS011;6919;52.344;14.518;2024-02-14T07:53:35;11.13;;;6.67;;
13693;SDS011;6919;52.344;14.518;2024-02-14T07:56:04;10.40;;;6.20;;
13693;SDS011;6919;52.344;14.518;2024-02-14T07:58:32;10.83;;;6.83;;
13693;SDS011;6919;52.344;14.518;2024-02-14T08:01:01;11.33;;;5.80;;
13693;SDS011;6919;52.344;14.518;2024-02-14T08:03:31;7.40;;;5.73;;
13693;SDS011;6919;52.344;14.518;2024-02-14T08:06:00;10.67;;;6.07;;
13693;SDS011;6919;52.344;14.518;2024-02-14T08:08:28;12.47;;;6.10;;
13693;SDS011;6919;52.344;14.518;2024-02-14T08:10:57;9.87;;;6.17;;
13693;SDS011;6919;52.344;14.518;2024-02-14T08:13:26;10.90;;;5.80;;
13693;SDS011;6919;52.344;14.518;2024-02-14T08:15:54;8.50;;;5.27;;
13693;SDS011;6919;52.344;14.518;2024-02-14T08:18:24;8.33;;;4.90;;
13693;SDS011;6919;52.344;14.518;2024-02-14T08:20:55;8.50;;;5.30;;
13693;SDS011;6919;52.344;14.518;2024-02-14T08:23:23;8.20;;;5.30;;
13693;SDS011;6919;52.344;14.518;2024-02-14T08:25:51;9.23;;;5.10;;
13693;SDS011;6919;52.344;14.518;2024-02-14T08:28:20;7.33;;;5.30;;
13693;SDS011;6919;52.344;14.518;2024-02-14T08:30:48;8.00;;;5.37;;
13693;SDS011;6919;52.344;14.518;2024-02-14T08:33:16;11.77;;;5.87;;
13693;SDS011;6919;52.344;14.518;2024-02-14T08:35:44;9.83;;;5.33;;
13693;SDS011;6919;52.344;14.518;2024-02-14T08:38:14;7.07;;;4.70;;
13693;SDS011;6919;52.344;14.518;2024-02-14T08:40:43;9.67;;;5.13;;
13693;SDS011;6919;52.344;14.518;2024-02-14T08:43:12;8.60;;;5.03;;
13693;SDS011;6919;52.344;14.518;2024-02-14T08:45:40;6.87;;;4.90;;
13693;SDS011;6919;52.344;14.518;2024-02-14T08:48:08;7.10;;;4.77;;
13693;SDS011;6919;52.344;14.518;2024-02-14T08:50:37;13.53;;;6.43;;
13693;SDS011;6919;52.344;14.518;2024-02-14T08:53:05;10.60;;;5.43;;
13693;SDS011;6919;52.344;14.518;2024-02-14T08:55:35;12.43;;;4.70;;
13693;SDS011;6919;52.344;14.518;2024-02-14T08:58:04;7.43;;;4.53;;
13693;SDS011;6919;52.344;14.518;2024-02-14T09:00:32;9.60;;;5.00;;
13693;SDS011;6919;52.344;14.518;2024-02-14T09:03:02;8.97;;;4.13;;
13693;SDS011;6919;52.344;14.518;2024-02-14T09:05:32;8.93;;;4.30;;
13693;SDS011;6919;52.344;14.518;2024-02-14T09:08:01;12.77;;;4.53;;
13693;SDS011;6919;52.344;14.518;2024-02-14T09:10:29;8.20;;;4.40;;
13693;SDS011;6919;52.344;14.518;2024-02-14T09:12:59;6.93;;;4.00;;
13693;SDS011;6919;52.344;14.518;2024-02-14T09:15:28;8.93;;;4.13;;
13693;SDS011;6919;52.344;14.518;2024-02-14T09:17:57;5.97;;;3.87;;
13693;SDS011;6919;52.344;14.518;2024-02-14T09:20:27;8.80;;;4.40;;
13693;SDS011;6919;52.344;14.518;2024-02-14T09:22:56;9.93;;;4.83;;
13693;SDS011;6919;52.344;14.518;2024-02-14T09:25:25;9.90;;;4.50;;
13693;SDS011;6919;52.344;14.518;2024-02-14T09:27:53;11.67;;;4.03;;
13693;SDS011;6919;52.344;14.518;2024-02-14T09:30:23;6.17;;;3.77;;
13693;SDS011;6919;52.344;14.518;2024-02-14T09:33:03;6.20;;;3.33;;
13693;SDS011;6919;52.344;14.518;2024-02-14T09:35:32;5.77;;;3.67;;
13693;SDS011;6919;52.344;14.518;2024-02-14T09:38:01;8.60;;;3.73;;
13693;SDS011;6919;52.344;14.518;2024-02-14T09:40:30;7.23;;;3.43;;
13693;SDS011;6919;52.344;14.518;2024-02-14T09:42:58;6.83;;;3.57;;
13693;SDS011;6919;52.344;14.518;2024-02-14T09:45:34;6.53;;;3.07;;
13693;SDS011;6919;52.344;14.518;2024-02-14T09:48:07;5.80;;;3.40;;
13693;SDS011;6919;52.344;14.518;2024-02-14T09:50:38;5.17;;;2.97;;
13693;SDS011;6919;52.344;14.518;2024-02-14T09:53:07;2.97;;;2.43;;
13693;SDS011;6919;52.344;14.518;2024-02-14T09:55:38;3.80;;;1.83;;
13693;SDS011;6919;52.344;14.518;2024-02-14T09:58:08;3.17;;;1.73;;
13693;SDS011;6919;52.344;14.518;2024-02-14T10:00:38;2.23;;;1.67;;
13693;SDS011;6919;52.344;14.518;2024-02-14T10:03:07;2.87;;;1.80;;
13693;SDS011;6919;52.344;14.518;2024-02-14T10:05:37;2.90;;;1.73;;
13693;SDS011;6919;52.344;14.518;2024-02-14T10:08:05;2.90;;;2.27;;
13693;SDS011;6919;52.344;14.518;2024-02-14T10:10:35;5.17;;;1.57;;
13693;SDS011;6919;52.344;14.518;2024-02-14T10:13:04;2.00;;;1.37;;
13693;SDS011;6919;52.344;14.518;2024-02-14T10:15:33;2.97;;;1.70;;
13693;SDS011;6919;52.344;14.518;2024-02-14T10:18:04;3.00;;;1.70;;
13693;SDS011;6919;52.344;14.518;2024-02-14T10:20:36;2.63;;;1.83;;
13693;SDS011;6919;52.344;14.518;2024-02-14T10:23:10;2.03;;;1.60;;
13693;SDS011;6919;52.344;14.518;2024-02-14T10:25:39;5.10;;;1.90;;
13693;SDS011;6919;52.344;14.518;2024-02-14T10:28:09;9.90;;;2.60;;
13693;SDS011;6919;52.344;14.518;2024-02-14T10:30:38;3.07;;;2.53;;
13693;SDS011;6919;52.344;14.518;2024-02-14T10:33:08;3.00;;;1.60;;
13693;SDS011;6919;52.344;14.518;2024-02-14T10:35:50;3.30;;;1.40;;
13693;SDS011;6919;52.344;14.518;2024-02-14T10:38:29;6.87;;;1.63;;
13693;SDS011;6919;52.344;14.518;2024-02-14T10:41:00;1.83;;;1.40;;
13693;SDS011;6919;52.344;14.518;2024-02-14T10:43:32;6.17;;;2.20;;
13693;SDS011;6919;52.344;14.518;2024-02-14T10:46:05;5.33;;;2.00;;
13693;SDS011;6919;52.344;14.518;2024-02-14T10:48:47;8.37;;;2.73;;
13693;SDS011;6919;52.344;14.518;2024-02-14T10:51:21;4.07;;;2.30;;
13693;SDS011;6919;52.344;14.518;2024-02-14T10:53:52;4.43;;;1.90;;
13693;SDS011;6919;52.344;14.518;2024-02-14T10:56:25;6.87;;;2.33;;
13693;SDS011;6919;52.344;14.518;2024-02-14T10:58:59;3.50;;;1.30;;
13693;SDS011;6919;52.344;14.518;2024-02-14T11:01:30;6.40;;;1.83;;
13693;SDS011;6919;52.344;14.518;2024-02-14T11:04:03;5.93;;;2.50;;
13693;SDS011;6919;52.344;14.518;2024-02-14T11:06:32;5.57;;;2.63;;
13693;SDS011;6919;52.344;14.518;2024-02-14T11:09:12;5.07;;;2.03;;
13693;SDS011;6919;52.344;14.518;2024-02-14T11:11:42;3.63;;;1.97;;
13693;SDS011;6919;52.344;14.518;2024-02-14T11:14:14;1.83;;;1.37;;
13693;SDS011;6919;52.344;14.518;2024-02-14T11:16:44;6.30;;;2.80;;
13693;SDS011;6919;52.344;14.518;2024-02-14T11:19:14;8.40;;;2.63;;
13693;SDS011;6919;52.344;14.518;2024-02-14T11:21:44;6.90;;;2.50;;
13693;SDS011;6919;52.344;14.518;2024-02-14T11:24:16;2.63;;;1.63;;
13693;SDS011;6919;52.344;14.518;2024-02-14T11:26:48;7.60;;;2.73;;
13693;SDS011;6919;52.344;14.518;2024-02-14T11:29:19;6.07;;;2.27;;
13693;SDS011;6919;52.344;14.518;2024-02-14T11:31:57;4.37;;;2.50;;
13693;SDS011;6919;52.344;14.518;2024-02-14T11:34:29;8.13;;;3.20;;
13693;SDS011;6919;52.344;14.518;2024-02-14T11:37:03;5.23;;;2.10;;
13693;SDS011;6919;52.344;14.518;2024-02-14T11:39:33;3.10;;;1.80;;
13693;SDS011;6919;52.344;14.518;2024-02-14T11:42:01;6.43;;;1.77;;
13693;SDS011;6919;52.344;14.518;2024-02-14T11:44:30;2.57;;;1.60;;
13693;SDS011;6919;52.344;14.518;2024-02-14T11:46:59;6.13;;;2.27;;
13693;SDS011;6919;52.344;14.518;2024-02-14T11:49:29;7.60;;;2.20;;
13693;SDS011;6919;52.344;14.518;2024-02-14T11:51:58;5.40;;;2.50;;
13693;SDS011;6919;52.344;14.518;2024-02-14T11:54:26;5.23;;;2.40;;
13693;SDS011;6919;52.344;14.518;2024-02-14T11:56:55;3.10;;;2.20;;
13693;SDS011;6919;52.344;14.518;2024-02-14T11:59:24;4.50;;;1.90;;
13693;SDS011;6919;52.344;14.518;2024-02-14T12:01:53;5.63;;;2.40;;
13693;SDS011;6919;52.344;14.518;2024-02-14T12:04:24;5.37;;;1.90;;
13693;SDS011;6919;52.344;14.518;2024-02-14T12:06:54;3.10;;;2.20;;
13693;SDS011;6919;52.344;14.518;2024-02-14T12:09:23;5.13;;;2.63;;
13693;SDS011;6919;52.344;14.518;2024-02-14T12:11:53;6.13;;;2.47;;
13693;SDS011;6919;52.344;14.518;2024-02-14T12:14:21;3.87;;;1.90;;
13693;SDS011;6919;52.344;14.518;2024-02-14T12:16:55;10.10;;;1.97;;
13693;SDS011;6919;52.344;14.518;2024-02-14T12:19:29;2.93;;;1.80;;
13693;SDS011;6919;52.344;14.518;2024-02-14T12:22:01;4.10;;;2.20;;
13693;SDS011;6919;52.344;14.518;2024-02-14T12:24:31;2.20;;;1.80;;
13693;SDS011;6919;52.344;14.518;2024-02-14T12:26:59;4.67;;;2.30;;
13693;SDS011;6919;52.344;14.518;2024-02-14T12:29:28;3.93;;;1.83;;
13693;SDS011;6919;52.344;14.518;2024-02-14T12:32:03;3.80;;;1.70;;
13693;SDS011;6919;52.344;14.518;2024-02-14T12:34:33;7.07;;;2.20;;
13693;SDS011;6919;52.344;14.518;2024-02-14T12:37:03;2.80;;;2.03;;
13693;SDS011;6919;52.344;14.518;2024-02-14T12:39:34;5.20;;;1.93;;
13693;SDS011;6919;52.344;14.518;2024-02-14T12:42:05;3.23;;;1.90;;
13693;SDS011;6919;52.344;14.518;2024-02-14T12:44:33;8.17;;;2.30;;
13693;SDS011;6919;52.344;14.518;2024-02-14T12:47:03;4.90;;;1.90;;
13693;SDS011;6919;52.344;14.518;2024-02-14T12:49:31;4.20;;;2.10;;
13693;SDS011;6919;52.344;14.518;2024-02-14T12:52:00;3.70;;;2.30;;
13693;SDS011;6919;52.344;14.518;2024-02-14T12:54:32;4.67;;;1.80;;
13693;SDS011;6919;52.344;14.518;2024-02-14T12:57:00;8.00;;;2.10;;
13693;SDS011;6919;52.344;14.518;2024-02-14T12:59:29;5.80;;;2.00;;
13693;SDS011;6919;52.344;14.518;2024-02-14T13:01:57;6.70;;;2.60;;
13693;SDS011;6919;52.344;14.518;2024-02-14T13:04:26;5.03;;;2.20;;
13693;SDS011;6919;52.344;14.518;2024-02-14T13:06:54;2.87;;;1.90;;
13693;SDS011;6919;52.344;14.518;2024-02-14T13:09:22;6.83;;;2.20;;
13693;SDS011;6919;52.344;14.518;2024-02-14T13:11:52;2.87;;;2.10;;
13693;SDS011;6919;52.344;14.518;2024-02-14T13:14:20;2.97;;;1.83;;
13693;SDS011;6919;52.344;14.518;2024-02-14T13:16:48;3.77;;;2.20;;
13693;SDS011;6919;52.344;14.518;2024-02-14T13:19:17;4.33;;;2.17;;
13693;SDS011;6919;52.344;14.518;2024-02-14T13:21:46;9.77;;;2.57;;
13693;SDS011;6919;52.344;14.518;2024-02-14T13:24:14;3.77;;;2.33;;
13693;SDS011;6919;52.344;14.518;2024-02-14T13:26:43;3.23;;;2.40;;
13693;SDS011;6919;52.344;14.518;2024-02-14T13:29:13;3.53;;;2.10;;
13693;SDS011;6919;52.344;14.518;2024-02-14T13:31:43;7.17;;;2.57;;
13693;SDS011;6919;52.344;14.518;2024-02-14T13:34:11;6.40;;;2.47;;
13693;SDS011;6919;52.344;14.518;2024-02-14T13:36:41;3.37;;;2.47;;
13693;SDS011;6919;52.344;14.518;2024-02-14T13:39:10;8.43;;;3.40;;
13693;SDS011;6919;52.344;14.518;2024-02-14T13:41:40;5.87;;;3.27;;
13693;SDS011;6919;52.344;14.518;2024-02-14T13:44:10;5.53;;;2.70;;
13693;SDS011;6919;52.344;14.518;2024-02-14T13:46:41;4.73;;;3.03;;
13693;SDS011;6919;52.344;14.518;2024-02-14T13:49:13;6.37;;;3.03;;
13693;SDS011;6919;52.344;14.518;2024-02-14T13:51:44;4.27;;;2.60;;
13693;SDS011;6919;52.344;14.518;2024-02-14T13:54:13;4.97;;;3.03;;
13693;SDS011;6919;52.344;14.518;2024-02-14T13:56:41;7.27;;;2.70;;
13693;SDS011;6919;52.344;14.518;2024-02-14T13:59:09;3.90;;;2.90;;
13693;SDS011;6919;52.344;14.518;2024-02-14T14:01:38;5.23;;;3.23;;
13693;SDS011;6919;52.344;14.518;2024-02-14T14:04:08;4.10;;;2.90;;
13693;SDS011;6919;52.344;14.518;2024-02-14T14:06:36;7.53;;;3.67;;
13693;SDS011;6919;52.344;14.518;2024-02-14T14:09:05;6.50;;;3.73;;
13693;SDS011;6919;52.344;14.518;2024-02-14T14:11:36;4.30;;;3.53;;
13693;SDS011;6919;52.344;14.518;2024-02-14T14:14:05;9.40;;;4.23;;
13693;SDS011;6919;52.344;14.518;2024-02-14T14:16:34;7.83;;;4.43;;
13693;SDS011;6919;52.344;14.518;2024-02-14T14:19:04;5.23;;;3.43;;
13693;SDS011;6919;52.344;14.518;2024-02-14T14:21:32;7.07;;;3.37;;
13693;SDS011;6919;52.344;14.518;2024-02-14T14:24:02;12.20;;;4.00;;
13693;SDS011;6919;52.344;14.518;2024-02-14T14:26:31;12.87;;;3.50;;
13693;SDS011;6919;52.344;14.518;2024-02-14T14:28:59;4.97;;;3.60;;
13693;SDS011;6919;52.344;14.518;2024-02-14T14:31:27;8.93;;;3.77;;
13693;SDS011;6919;52.344;14.518;2024-02-14T14:33:56;7.00;;;3.50;;
13693;SDS011;6919;52.344;14.518;2024-02-14T14:36:26;8.57;;;3.67;;
13693;SDS011;6919;52.344;14.518;2024-02-14T14:38:55;5.40;;;3.90;;
13693;SDS011;6919;52.344;14.518;2024-02-14T14:41:23;8.90;;;4.27;;
13693;SDS011;6919;52.344;14.518;2024-02-14T14:43:51;4.57;;;3.80;;
13693;SDS011;6919;52.344;14.518;2024-02-14T14:46:19;6.87;;;3.73;;
13693;SDS011;6919;52.344;14.518;2024-02-14T14:48:48;5.27;;;3.67;;
13693;SDS011;6919;52.344;14.518;2024-02-14T14:51:16;6.30;;;4.27;;
13693;SDS011;6919;52.344;14.518;2024-02-14T14:53:47;10.27;;;4.03;;